Weather reports worldwide

Advertisment
San Pietro Capofiume, Italy (16144): temperature & dewpoint: 17.05.2019 14:00:00 - 23.05.2019 14:00:00 (CEST)San Pietro Capofiume, Italy (16144): wind speed: 17.05.2019 14:00:00 - 23.05.2019 14:00:00 (CEST)San Pietro Capofiume, Italy (16144): wind direction: 17.05.2019 14:00:00 - 23.05.2019 14:00:00 (CEST)San Pietro Capofiume, Italy (16144): reduced air pressure: 17.05.2019 14:00:00 - 23.05.2019 14:00:00 (CEST)San Pietro Capofiume, Italy (16144): precipitation: 17.05.2019 14:00:00 - 23.05.2019 14:00:00 (CEST)
Date & Time tt [°C] td [°C] ff [km/h] ff [kn] dd ppp [hPa] rr [mm]
23.05.2019 14:00:00 - - - - - - -
23.05.2019 13:00:00 - - - - - - -
23.05.2019 12:00:00 - - - - - - -
23.05.2019 11:00:00 20,3 13,3 3 2 SW 1017,0 0,0
23.05.2019 10:00:00 19,3 13,9 8 4 W 1017,1 0,0
23.05.2019 09:00:00 17,9 13,8 7 4 W 1017,0 0,0
23.05.2019 08:00:00 15,9 13,7 5 3 W 1017,0 0,0
23.05.2019 07:00:00 14,6 13,0 10 5 WSW 1016,7 2,2
23.05.2019 06:00:00 14,4 12,8 8 4 SW 1016,4 4,0
23.05.2019 05:00:00 14,7 12,9 10 5 NNE 1016,3 0,0
23.05.2019 04:00:00 13,8 12,2 5 3 NW 1016,3 0,0
23.05.2019 03:00:00 13,4 11,8 4 2 NW 1015,9 0,0
23.05.2019 02:00:00 13,6 12,0 3 2 SE 1015,9 0,0
23.05.2019 01:00:00 13,5 11,6 1 0 ESE 1016,0 0,0
23.05.2019 00:00:00 14,1 12,0 4 2 E 1015,7 0,0
22.05.2019 23:00:00 15,9 12,6 5 3 E 1015,8 0,0
22.05.2019 22:00:00 16,8 13,3 8 4 ESE 1015,2 0,0
22.05.2019 21:00:00 18,7 14,2 9 5 SE 1014,7 0,0
22.05.2019 20:00:00 22,1 13,2 8 4 SSW 1014,1 0,0
22.05.2019 19:00:00 22,6 12,8 10 5 SW 1013,8 0,0
22.05.2019 18:00:00 23,0 12,3 13 7 WSW 1013,7 0,0
22.05.2019 17:00:00 23,2 11,9 9 5 SSE 1013,8 0,0
22.05.2019 16:00:00 23,9 11,9 3 1 E 1013,9 0,0
22.05.2019 15:00:00 23,7 12,4 6 4 WSW 1014,3 0,0
22.05.2019 14:00:00 21,8 12,4 5 3 ESE 1014,8 0,0
22.05.2019 13:00:00 22,0 - - - - - -
22.05.2019 12:00:00 20,6 - - - - - 0,0
22.05.2019 11:00:00 19,1 13,5 10 5 W 1015,0 0,0
22.05.2019 10:00:00 18,6 13,0 13 7 W 1015,0 0,0
22.05.2019 09:00:00 18,0 - - - - - 0,0
22.05.2019 08:00:00 14,9 10,7 8 5 W 1014,5 0,0
22.05.2019 07:00:00 13,8 10,4 9 5 W 1014,0 0,0
22.05.2019 06:00:00 13,5 11,2 4 2 SW 1013,7 0,0
22.05.2019 05:00:00 13,5 11,6 5 3 SSW 1013,4 0,0
22.05.2019 04:00:00 12,9 11,1 4 2 S 1013,2 0,0
22.05.2019 03:00:00 13,5 11,6 3 2 W 1013,0 0,0
22.05.2019 02:00:00 13,5 11,6 4 2 NW 1013,1 0,0
22.05.2019 01:00:00 14,2 11,4 5 3 NW 1013,2 0,0
22.05.2019 00:00:00 14,5 12,0 11 6 SW 1013,2 0,0
21.05.2019 23:00:00 15,7 12,6 10 5 W 1012,7 0,0
21.05.2019 22:00:00 17,8 10,7 10 5 SW 1012,1 0,0
21.05.2019 21:00:00 18,8 11,4 7 4 S 1011,2 0,0
21.05.2019 20:00:00 19,3 12,3 2 1 ESE 1010,6 0,0
21.05.2019 19:00:00 21,0 12,4 4 2 SSE 1010,0 0,0
21.05.2019 18:00:00 22,1 12,6 15 8 SSW 1009,8 0,0
21.05.2019 17:00:00 22,8 15,4 13 7 ENE 1009,9 0,0
21.05.2019 16:00:00 23,5 13,9 8 4 ESE 1009,8 0,0
21.05.2019 15:00:00 23,1 14,6 8 5 ENE 1009,8 0,0
21.05.2019 14:00:00 21,9 13,8 9 5 E 1009,7 0,0
21.05.2019 13:00:00 21,5 12,6 2 1 ENE 1009,7 0,0
21.05.2019 12:00:00 20,5 12,0 3 1 ESE 1009,4 0,0
21.05.2019 11:00:00 19,3 11,6 4 2 NW 1009,3 0,0
21.05.2019 10:00:00 18,1 11,4 6 3 NNW 1009,1 0,0
21.05.2019 09:00:00 16,7 11,6 5 3 WSW 1008,8 0,0
21.05.2019 08:00:00 14,3 11,3 - - - 1008,2 0,0
21.05.2019 07:00:00 13,4 10,9 6 4 SSW 1008,0 0,0
21.05.2019 06:00:00 13,0 10,5 - - - 1007,6 0,0
21.05.2019 05:00:00 13,2 10,6 6 4 SSE 1007,5 0,0
21.05.2019 04:00:00 12,9 10,6 9 5 SE 1007,6 0,0
21.05.2019 03:00:00 13,2 11,3 8 5 SE 1008,0 0,2
21.05.2019 02:00:00 13,1 10,8 - - - 1008,1 0,0
21.05.2019 01:00:00 13,7 9,9 3 2 SW 1008,3 0,0
21.05.2019 00:00:00 14,4 10,4 - - - 1008,2 -
20.05.2019 23:00:00 13,4 11,6 5 3 SSE 1007,9 0,0
20.05.2019 22:00:00 14,1 12,0 7 4 SSE 1007,8 0,0
20.05.2019 21:00:00 14,4 12,3 - - - 1007,4 1,8
20.05.2019 20:00:00 14,9 12,0 8 5 SSW 1007,3 0,6
20.05.2019 19:00:00 16,2 11,1 10 5 NNW 1006,6 0,0
20.05.2019 18:00:00 19,5 11,0 5 3 N 1006,2 0,0
20.05.2019 17:00:00 20,6 11,5 4 2 ENE 1006,1 0,0
20.05.2019 16:00:00 19,7 10,4 3 2 NW 1006,1 0,0
20.05.2019 15:00:00 18,9 11,9 6 4 S 1006,3 0,0
20.05.2019 14:00:00 18,9 11,0 5 3 S 1006,5 0,0
20.05.2019 13:00:00 18,3 11,4 3 2 S 1006,4 0,0
20.05.2019 12:00:00 17,6 11,6 7 4 SW 1006,2 0,0
20.05.2019 11:00:00 16,2 11,8 6 4 WSW 1006,2 0,0
20.05.2019 10:00:00 15,2 12,0 6 4 W 1006,1 0,0
20.05.2019 09:00:00 14,6 11,7 11 6 W 1005,8 0,0
20.05.2019 08:00:00 13,8 12,0 10 6 W 1005,4 0,0
20.05.2019 07:00:00 13,1 11,7 8 4 WSW 1005,0 0,0
20.05.2019 06:00:00 12,9 11,5 6 3 W 1004,6 0,2
20.05.2019 05:00:00 13,0 11,6 8 4 W 1004,8 0,0
20.05.2019 04:00:00 13,3 11,9 10 5 W 1005,1 0,4
20.05.2019 03:00:00 13,4 12,0 10 6 W 1005,1 0,4
20.05.2019 02:00:00 13,4 12,0 10 5 W 1005,2 1,0
20.05.2019 01:00:00 13,5 12,1 10 5 W 1005,2 0,6
20.05.2019 00:00:00 13,5 11,9 6 3 W 1005,4 0,4
19.05.2019 23:00:00 13,7 11,9 10 5 WSW 1005,3 0,0
19.05.2019 22:00:00 13,9 11,9 5 3 W 1005,4 0,0
19.05.2019 21:00:00 14,8 11,9 6 4 SSW 1004,9 0,0
19.05.2019 20:00:00 15,3 12,2 5 3 SSE 1004,7 0,0
19.05.2019 19:00:00 15,9 13,0 4 2 E 1004,5 0,0
19.05.2019 18:00:00 16,1 13,2 6 3 E 1004,4 0,0
19.05.2019 17:00:00 16,4 13,5 8 4 E 1004,4 0,0
19.05.2019 16:00:00 16,0 13,3 9 5 SW 1004,3 1,0
19.05.2019 15:00:00 16,7 13,0 12 7 WSW 1004,1 0,8
19.05.2019 14:00:00 18,2 12,6 10 5 WSW 1004,0 0,0
19.05.2019 13:00:00 17,5 13,0 10 5 W 1004,2 0,0
19.05.2019 12:00:00 16,5 13,2 9 5 WNW 1004,3 0,0
19.05.2019 11:00:00 15,3 12,8 9 5 W 1004,5 0,0
19.05.2019 10:00:00 14,5 12,7 8 4 WNW 1004,7 0,0
19.05.2019 09:00:00 13,4 12,1 10 6 W 1004,7 0,0
19.05.2019 08:00:00 13,2 11,9 12 6 W 1004,4 0,0
19.05.2019 07:00:00 13,2 11,9 11 6 WSW 1004,6 0,0
19.05.2019 06:00:00 13,3 12,0 8 4 W 1004,6 0,0
19.05.2019 05:00:00 13,4 12,1 8 5 WSW 1004,9 0,0
19.05.2019 04:00:00 13,6 12,3 9 5 W 1005,1 0,0
19.05.2019 03:00:00 13,6 12,3 9 5 WNW 1005,4 0,0
19.05.2019 02:00:00 14,1 12,8 6 3 W 1005,8 0,0
19.05.2019 01:00:00 14,0 12,7 - - - 1006,0 0,0
19.05.2019 00:00:00 13,8 12,5 2 1 NNE 1006,2 0,0
18.05.2019 23:00:00 13,8 12,4 4 2 NNE 1006,3 0,0
18.05.2019 22:00:00 14,1 12,7 5 3 NNE 1006,2 0,0
18.05.2019 21:00:00 14,8 13,3 5 3 NE 1006,0 0,0
18.05.2019 20:00:00 15,3 13,7 4 2 NNE 1005,8 1,0
18.05.2019 19:00:00 15,2 13,6 - - - 1005,7 1,4
18.05.2019 18:00:00 14,9 12,9 11 6 NNE 1005,3 1,2
18.05.2019 17:00:00 15,0 12,3 21 11 NE 1005,5 0,0
18.05.2019 16:00:00 14,6 12,1 23 13 NE 1005,4 0,8
18.05.2019 15:00:00 14,9 11,5 27 15 NE 1006,0 0,0
18.05.2019 14:00:00 14,0 11,5 27 15 NE 1006,2 0,0
18.05.2019 13:00:00 14,3 11,8 24 13 NE 1006,2 0,8
18.05.2019 12:00:00 13,3 11,2 23 13 ENE 1006,4 3,4
18.05.2019 11:00:00 15,9 12,6 25 13 NE 1006,1 0,4
18.05.2019 10:00:00 14,1 11,6 17 9 NE 1006,4 0,4
18.05.2019 09:00:00 14,0 11,2 14 8 ENE 1006,7 0,0
18.05.2019 08:00:00 13,2 11,3 15 8 NE 1006,8 0,0
18.05.2019 07:00:00 12,4 10,5 14 8 NE 1007,0 2,0
18.05.2019 06:00:00 12,8 11,2 13 7 ENE 1007,2 1,0
18.05.2019 05:00:00 13,1 11,5 15 8 NE 1007,1 0,0
18.05.2019 04:00:00 13,1 11,7 16 8 NE 1007,6 1,4
18.05.2019 03:00:00 13,2 11,4 15 8 NE 1008,3 1,6
18.05.2019 02:00:00 13,6 11,5 13 7 NE 1008,4 0,0
18.05.2019 01:00:00 13,5 11,2 10 6 ENE 1008,4 0,0
18.05.2019 00:00:00 13,4 11,3 10 5 ENE 1008,5 0,2
17.05.2019 23:00:00 13,8 11,0 6 3 E 1009,0 0,0
17.05.2019 22:00:00 13,9 10,7 4 2 E 1008,9 0,0
17.05.2019 21:00:00 14,2 10,6 8 4 E 1008,9 0,0
17.05.2019 20:00:00 15,4 10,4 10 6 E 1008,7 0,0
17.05.2019 19:00:00 16,5 10,8 11 6 E 1008,8 0,0
17.05.2019 18:00:00 - - - - - - -
17.05.2019 17:00:00 18,7 10,0 11 6 E 1009,2 0,0
17.05.2019 16:00:00 19,0 10,0 14 8 E 1009,5 0,0
17.05.2019 15:00:00 19,3 9,8 14 8 E 1009,9 0,0
17.05.2019 14:00:00 19,1 9,3 13 7 E 1010,0 0,0

tt = temperature
td = dewpoint
ff = wind speed
dd = wind direction
ppp = reduced air pressure
rr = precipitation

Next stations